sensor_id;sensor_type;location;lat;lon;timestamp;temperature;humidity
298;DHT22;133;49.626;9.680;2023-04-28T00:00:25;11.40;80.30
298;DHT22;133;49.626;9.680;2023-04-28T00:02:51;11.40;80.90
298;DHT22;133;49.626;9.680;2023-04-28T00:05:17;11.40;81.20
298;DHT22;133;49.626;9.680;2023-04-28T00:07:42;11.30;80.80
298;DHT22;133;49.626;9.680;2023-04-28T00:10:08;11.30;80.60
298;DHT22;133;49.626;9.680;2023-04-28T00:12:34;11.30;81.40
298;DHT22;133;49.626;9.680;2023-04-28T00:15:00;11.20;80.90
298;DHT22;133;49.626;9.680;2023-04-28T00:17:25;11.20;81.20
298;DHT22;133;49.626;9.680;2023-04-28T00:19:51;11.20;81.60
298;DHT22;133;49.626;9.680;2023-04-28T00:22:17;11.20;81.80
298;DHT22;133;49.626;9.680;2023-04-28T00:24:43;11.20;81.80
298;DHT22;133;49.626;9.680;2023-04-28T00:27:09;11.30;81.60
298;DHT22;133;49.626;9.680;2023-04-28T00:29:35;11.20;81.90
298;DHT22;133;49.626;9.680;2023-04-28T00:32:01;11.10;82.50
298;DHT22;133;49.626;9.680;2023-04-28T00:34:27;11.10;82.50
298;DHT22;133;49.626;9.680;2023-04-28T00:36:54;11.10;82.50
298;DHT22;133;49.626;9.680;2023-04-28T00:39:20;11.10;83.10
298;DHT22;133;49.626;9.680;2023-04-28T00:41:47;11.10;82.80
298;DHT22;133;49.626;9.680;2023-04-28T00:44:13;11.10;82.60
298;DHT22;133;49.626;9.680;2023-04-28T00:46:38;11.10;82.20
298;DHT22;133;49.626;9.680;2023-04-28T00:49:04;11.10;82.30
298;DHT22;133;49.626;9.680;2023-04-28T00:51:30;11.00;82.50
298;DHT22;133;49.626;9.680;2023-04-28T00:53:58;11.00;82.50
298;DHT22;133;49.626;9.680;2023-04-28T00:56:24;11.00;82.70
298;DHT22;133;49.626;9.680;2023-04-28T00:58:52;11.00;82.70
298;DHT22;133;49.626;9.680;2023-04-28T01:01:18;11.00;82.70
298;DHT22;133;49.626;9.680;2023-04-28T01:03:44;11.00;82.70
298;DHT22;133;49.626;9.680;2023-04-28T01:06:09;11.00;82.90
298;DHT22;133;49.626;9.680;2023-04-28T01:08:36;11.00;83.30
298;DHT22;133;49.626;9.680;2023-04-28T01:11:02;10.90;83.20
298;DHT22;133;49.626;9.680;2023-04-28T01:13:28;11.00;83.40
298;DHT22;133;49.626;9.680;2023-04-28T01:15:57;11.00;83.60
298;DHT22;133;49.626;9.680;2023-04-28T01:18:23;11.00;83.70
298;DHT22;133;49.626;9.680;2023-04-28T01:20:50;11.00;83.40
298;DHT22;133;49.626;9.680;2023-04-28T01:23:16;11.00;83.50
298;DHT22;133;49.626;9.680;2023-04-28T01:25:42;11.10;83.30
298;DHT22;133;49.626;9.680;2023-04-28T01:28:09;11.10;83.50
298;DHT22;133;49.626;9.680;2023-04-28T01:30:35;11.00;84.00
298;DHT22;133;49.626;9.680;2023-04-28T01:33:01;11.00;84.10
298;DHT22;133;49.626;9.680;2023-04-28T01:35:27;10.90;84.20
298;DHT22;133;49.626;9.680;2023-04-28T01:37:53;10.90;84.40
298;DHT22;133;49.626;9.680;2023-04-28T01:40:18;11.00;84.30
298;DHT22;133;49.626;9.680;2023-04-28T01:42:44;11.00;84.40
298;DHT22;133;49.626;9.680;2023-04-28T01:45:10;10.90;84.50
298;DHT22;133;49.626;9.680;2023-04-28T01:47:36;11.00;84.20
298;DHT22;133;49.626;9.680;2023-04-28T01:50:01;11.00;84.10
298;DHT22;133;49.626;9.680;2023-04-28T01:52:27;11.00;84.20
298;DHT22;133;49.626;9.680;2023-04-28T01:57:37;10.90;84.50
298;DHT22;133;49.626;9.680;2023-04-28T02:00:03;10.80;84.10
298;DHT22;133;49.626;9.680;2023-04-28T02:02:29;10.70;84.40
298;DHT22;133;49.626;9.680;2023-04-28T02:04:55;10.60;84.50
298;DHT22;133;49.626;9.680;2023-04-28T02:07:22;10.60;84.70
298;DHT22;133;49.626;9.680;2023-04-28T02:09:48;10.70;84.90
298;DHT22;133;49.626;9.680;2023-04-28T02:12:13;10.70;84.80
298;DHT22;133;49.626;9.680;2023-04-28T02:14:39;10.80;84.70
298;DHT22;133;49.626;9.680;2023-04-28T02:17:04;10.80;84.80
298;DHT22;133;49.626;9.680;2023-04-28T02:19:30;10.80;84.90
298;DHT22;133;49.626;9.680;2023-04-28T02:21:56;10.80;84.90
298;DHT22;133;49.626;9.680;2023-04-28T02:24:21;10.80;85.00
298;DHT22;133;49.626;9.680;2023-04-28T02:26:47;10.80;85.20
298;DHT22;133;49.626;9.680;2023-04-28T02:29:13;10.80;85.10
298;DHT22;133;49.626;9.680;2023-04-28T02:31:39;10.80;85.10
298;DHT22;133;49.626;9.680;2023-04-28T02:34:05;10.80;84.90
298;DHT22;133;49.626;9.680;2023-04-28T02:36:31;10.90;85.10
298;DHT22;133;49.626;9.680;2023-04-28T02:38:57;10.90;85.10
298;DHT22;133;49.626;9.680;2023-04-28T02:41:23;10.90;85.10
298;DHT22;133;49.626;9.680;2023-04-28T02:43:48;10.90;84.90
298;DHT22;133;49.626;9.680;2023-04-28T02:46:14;10.70;84.90
298;DHT22;133;49.626;9.680;2023-04-28T02:48:40;10.70;84.70
298;DHT22;133;49.626;9.680;2023-04-28T02:51:05;10.80;84.80
298;DHT22;133;49.626;9.680;2023-04-28T02:53:31;10.80;84.60
298;DHT22;133;49.626;9.680;2023-04-28T02:55:57;10.80;85.10
298;DHT22;133;49.626;9.680;2023-04-28T02:58:22;10.80;85.10
298;DHT22;133;49.626;9.680;2023-04-28T03:00:48;10.80;85.20
298;DHT22;133;49.626;9.680;2023-04-28T03:03:13;10.80;85.50
298;DHT22;133;49.626;9.680;2023-04-28T03:05:39;10.80;86.60
298;DHT22;133;49.626;9.680;2023-04-28T03:08:05;10.90;87.30
298;DHT22;133;49.626;9.680;2023-04-28T03:10:31;10.80;87.60
298;DHT22;133;49.626;9.680;2023-04-28T03:12:56;10.80;87.80
298;DHT22;133;49.626;9.680;2023-04-28T03:15:22;10.80;88.00
298;DHT22;133;49.626;9.680;2023-04-28T03:17:48;10.80;88.00
298;DHT22;133;49.626;9.680;2023-04-28T03:20:13;10.80;88.10
298;DHT22;133;49.626;9.680;2023-04-28T03:22:39;10.70;88.50
298;DHT22;133;49.626;9.680;2023-04-28T03:25:04;10.70;89.20
298;DHT22;133;49.626;9.680;2023-04-28T03:27:30;10.70;89.70
298;DHT22;133;49.626;9.680;2023-04-28T03:29:56;10.70;89.80
298;DHT22;133;49.626;9.680;2023-04-28T03:32:22;10.70;89.80
298;DHT22;133;49.626;9.680;2023-04-28T03:34:47;10.60;90.30
298;DHT22;133;49.626;9.680;2023-04-28T03:37:13;10.60;90.50
298;DHT22;133;49.626;9.680;2023-04-28T03:39:39;10.60;91.10
298;DHT22;133;49.626;9.680;2023-04-28T03:42:04;10.60;91.20
298;DHT22;133;49.626;9.680;2023-04-28T03:44:30;10.70;91.30
298;DHT22;133;49.626;9.680;2023-04-28T03:46:56;10.60;91.50
298;DHT22;133;49.626;9.680;2023-04-28T03:49:21;10.50;91.80
298;DHT22;133;49.626;9.680;2023-04-28T03:51:47;10.50;91.80
298;DHT22;133;49.626;9.680;2023-04-28T03:54:14;10.50;91.80
298;DHT22;133;49.626;9.680;2023-04-28T03:56:40;10.50;91.50
298;DHT22;133;49.626;9.680;2023-04-28T03:59:06;10.50;91.70
298;DHT22;133;49.626;9.680;2023-04-28T04:01:32;10.50;91.60
298;DHT22;133;49.626;9.680;2023-04-28T04:03:57;10.50;92.10
298;DHT22;133;49.626;9.680;2023-04-28T04:06:23;10.60;91.50
298;DHT22;133;49.626;9.680;2023-04-28T04:08:48;10.50;91.00
298;DHT22;133;49.626;9.680;2023-04-28T04:11:14;10.40;91.30
298;DHT22;133;49.626;9.680;2023-04-28T04:13:40;10.40;92.00
298;DHT22;133;49.626;9.680;2023-04-28T04:16:05;10.30;91.40
298;DHT22;133;49.626;9.680;2023-04-28T04:18:31;10.20;91.30
298;DHT22;133;49.626;9.680;2023-04-28T04:20:57;10.30;91.60
298;DHT22;133;49.626;9.680;2023-04-28T04:23:23;10.40;91.90
298;DHT22;133;49.626;9.680;2023-04-28T04:25:49;10.40;92.20
298;DHT22;133;49.626;9.680;2023-04-28T04:28:14;10.40;91.90
298;DHT22;133;49.626;9.680;2023-04-28T04:30:40;10.50;91.70
298;DHT22;133;49.626;9.680;2023-04-28T04:33:06;10.50;91.40
298;DHT22;133;49.626;9.680;2023-04-28T04:35:32;10.50;91.40
298;DHT22;133;49.626;9.680;2023-04-28T04:37:58;10.50;92.00
298;DHT22;133;49.626;9.680;2023-04-28T04:40:24;10.50;92.10
298;DHT22;133;49.626;9.680;2023-04-28T04:42:50;10.50;92.30
298;DHT22;133;49.626;9.680;2023-04-28T04:45:15;10.60;92.50
298;DHT22;133;49.626;9.680;2023-04-28T04:47:41;10.60;92.40
298;DHT22;133;49.626;9.680;2023-04-28T04:50:08;10.60;92.80
298;DHT22;133;49.626;9.680;2023-04-28T04:52:34;10.60;93.20
298;DHT22;133;49.626;9.680;2023-04-28T04:54:59;10.70;92.60
298;DHT22;133;49.626;9.680;2023-04-28T04:57:25;10.70;92.30
298;DHT22;133;49.626;9.680;2023-04-28T04:59:50;10.70;92.30
298;DHT22;133;49.626;9.680;2023-04-28T05:02:16;10.70;92.10
298;DHT22;133;49.626;9.680;2023-04-28T05:04:42;10.70;92.30
298;DHT22;133;49.626;9.680;2023-04-28T05:07:07;10.60;92.50
298;DHT22;133;49.626;9.680;2023-04-28T05:09:33;10.70;92.30
298;DHT22;133;49.626;9.680;2023-04-28T05:11:59;10.70;91.40
298;DHT22;133;49.626;9.680;2023-04-28T05:14:24;10.70;91.40
298;DHT22;133;49.626;9.680;2023-04-28T05:16:50;10.70;91.00
298;DHT22;133;49.626;9.680;2023-04-28T05:19:16;10.70;92.00
298;DHT22;133;49.626;9.680;2023-04-28T05:21:42;10.60;92.40
298;DHT22;133;49.626;9.680;2023-04-28T05:24:07;10.70;92.60
298;DHT22;133;49.626;9.680;2023-04-28T05:26:34;10.70;92.90
298;DHT22;133;49.626;9.680;2023-04-28T05:29:00;10.70;93.00
298;DHT22;133;49.626;9.680;2023-04-28T05:31:26;10.70;93.40
298;DHT22;133;49.626;9.680;2023-04-28T05:33:51;10.70;93.10
298;DHT22;133;49.626;9.680;2023-04-28T05:36:17;10.70;92.90
298;DHT22;133;49.626;9.680;2023-04-28T05:38:43;10.60;93.70
298;DHT22;133;49.626;9.680;2023-04-28T05:41:08;10.40;95.30
298;DHT22;133;49.626;9.680;2023-04-28T05:43:34;10.30;95.80
298;DHT22;133;49.626;9.680;2023-04-28T05:46:00;10.50;95.30
298;DHT22;133;49.626;9.680;2023-04-28T05:48:26;10.60;95.00
298;DHT22;133;49.626;9.680;2023-04-28T05:50:51;10.70;94.80
298;DHT22;133;49.626;9.680;2023-04-28T05:53:17;10.70;94.40
298;DHT22;133;49.626;9.680;2023-04-28T05:55:43;10.80;94.20
298;DHT22;133;49.626;9.680;2023-04-28T05:58:08;10.60;93.80
298;DHT22;133;49.626;9.680;2023-04-28T06:00:59;10.60;93.90
298;DHT22;133;49.626;9.680;2023-04-28T06:03:45;10.70;93.50
298;DHT22;133;49.626;9.680;2023-04-28T06:06:32;10.70;93.60
298;DHT22;133;49.626;9.680;2023-04-28T06:09:18;10.80;93.40
298;DHT22;133;49.626;9.680;2023-04-28T06:12:05;10.90;93.50
298;DHT22;133;49.626;9.680;2023-04-28T06:14:55;10.90;93.30
298;DHT22;133;49.626;9.680;2023-04-28T06:17:46;10.90;92.90
298;DHT22;133;49.626;9.680;2023-04-28T06:35:12;11.00;93.70
298;DHT22;133;49.626;9.680;2023-04-28T06:37:38;11.10;94.00
298;DHT22;133;49.626;9.680;2023-04-28T06:40:04;11.20;93.40
298;DHT22;133;49.626;9.680;2023-04-28T06:42:30;11.20;93.40
298;DHT22;133;49.626;9.680;2023-04-28T06:44:55;11.20;93.60
298;DHT22;133;49.626;9.680;2023-04-28T06:47:21;11.20;93.30
298;DHT22;133;49.626;9.680;2023-04-28T06:49:47;11.30;93.30
298;DHT22;133;49.626;9.680;2023-04-28T06:52:14;11.30;93.50
298;DHT22;133;49.626;9.680;2023-04-28T06:54:40;11.40;93.90
298;DHT22;133;49.626;9.680;2023-04-28T06:57:06;11.40;93.80
298;DHT22;133;49.626;9.680;2023-04-28T06:59:32;11.50;94.20
298;DHT22;133;49.626;9.680;2023-04-28T07:01:57;11.40;94.30
298;DHT22;133;49.626;9.680;2023-04-28T07:04:23;11.50;93.70
298;DHT22;133;49.626;9.680;2023-04-28T07:06:49;11.50;94.10
298;DHT22;133;49.626;9.680;2023-04-28T07:09:15;11.50;93.70
298;DHT22;133;49.626;9.680;2023-04-28T07:11:42;11.40;93.40
298;DHT22;133;49.626;9.680;2023-04-28T07:14:07;11.40;92.80
298;DHT22;133;49.626;9.680;2023-04-28T07:16:33;11.20;93.10
298;DHT22;133;49.626;9.680;2023-04-28T07:19:00;11.20;93.00
298;DHT22;133;49.626;9.680;2023-04-28T07:21:26;11.10;93.40
298;DHT22;133;49.626;9.680;2023-04-28T07:23:53;11.10;93.90
298;DHT22;133;49.626;9.680;2023-04-28T07:26:22;11.20;94.10
298;DHT22;133;49.626;9.680;2023-04-28T07:28:47;11.30;93.50
298;DHT22;133;49.626;9.680;2023-04-28T07:31:13;11.10;93.80
298;DHT22;133;49.626;9.680;2023-04-28T07:33:38;11.10;94.40
298;DHT22;133;49.626;9.680;2023-04-28T07:36:04;11.00;94.90
298;DHT22;133;49.626;9.680;2023-04-28T07:38:32;11.00;94.90
298;DHT22;133;49.626;9.680;2023-04-28T07:40:58;10.90;95.80
298;DHT22;133;49.626;9.680;2023-04-28T07:43:24;10.90;95.50
298;DHT22;133;49.626;9.680;2023-04-28T07:45:49;10.90;95.70
298;DHT22;133;49.626;9.680;2023-04-28T07:48:15;10.90;96.30
298;DHT22;133;49.626;9.680;2023-04-28T07:50:41;11.00;96.40
298;DHT22;133;49.626;9.680;2023-04-28T07:53:07;11.00;96.60
298;DHT22;133;49.626;9.680;2023-04-28T07:55:33;11.10;96.50
298;DHT22;133;49.626;9.680;2023-04-28T07:57:59;11.20;96.50
298;DHT22;133;49.626;9.680;2023-04-28T08:00:25;11.20;96.40
298;DHT22;133;49.626;9.680;2023-04-28T08:02:50;11.30;96.50
298;DHT22;133;49.626;9.680;2023-04-28T08:05:16;11.30;96.20
298;DHT22;133;49.626;9.680;2023-04-28T08:07:42;11.30;96.30
298;DHT22;133;49.626;9.680;2023-04-28T08:10:09;11.30;96.20
298;DHT22;133;49.626;9.680;2023-04-28T08:12:35;11.30;96.00
298;DHT22;133;49.626;9.680;2023-04-28T08:15:00;11.40;95.90
298;DHT22;133;49.626;9.680;2023-04-28T08:17:26;11.40;96.00
298;DHT22;133;49.626;9.680;2023-04-28T08:19:52;11.40;95.90
298;DHT22;133;49.626;9.680;2023-04-28T08:22:18;11.50;95.70
298;DHT22;133;49.626;9.680;2023-04-28T08:24:43;11.50;95.50
298;DHT22;133;49.626;9.680;2023-04-28T08:27:10;11.40;94.00
298;DHT22;133;49.626;9.680;2023-04-28T08:29:37;11.50;94.90
298;DHT22;133;49.626;9.680;2023-04-28T08:32:02;11.50;95.20
298;DHT22;133;49.626;9.680;2023-04-28T08:34:31;11.50;96.00
298;DHT22;133;49.626;9.680;2023-04-28T08:36:57;11.50;96.00
298;DHT22;133;49.626;9.680;2023-04-28T08:39:23;11.60;96.30
298;DHT22;133;49.626;9.680;2023-04-28T08:41:50;11.80;96.40
298;DHT22;133;49.626;9.680;2023-04-28T08:44:16;11.90;95.90
298;DHT22;133;49.626;9.680;2023-04-28T08:46:44;12.10;95.10
298;DHT22;133;49.626;9.680;2023-04-28T08:49:22;12.10;95.00
298;DHT22;133;49.626;9.680;2023-04-28T08:51:55;12.40;94.90
298;DHT22;133;49.626;9.680;2023-04-28T08:54:27;12.60;94.70
298;DHT22;133;49.626;9.680;2023-04-28T08:56:54;12.60;94.40
298;DHT22;133;49.626;9.680;2023-04-28T08:59:21;12.80;94.30
298;DHT22;133;49.626;9.680;2023-04-28T09:01:50;13.00;94.20
298;DHT22;133;49.626;9.680;2023-04-28T09:04:16;13.20;93.90
298;DHT22;133;49.626;9.680;2023-04-28T09:06:42;13.40;93.70
298;DHT22;133;49.626;9.680;2023-04-28T09:09:25;13.50;93.60
298;DHT22;133;49.626;9.680;2023-04-28T09:11:55;13.70;93.30
298;DHT22;133;49.626;9.680;2023-04-28T09:14:22;13.80;93.30
298;DHT22;133;49.626;9.680;2023-04-28T09:16:49;14.00;93.10
298;DHT22;133;49.626;9.680;2023-04-28T09:19:15;14.10;92.70
298;DHT22;133;49.626;9.680;2023-04-28T09:21:48;14.30;92.30
298;DHT22;133;49.626;9.680;2023-04-28T09:27:06;14.50;91.60
298;DHT22;133;49.626;9.680;2023-04-28T09:29:35;14.50;91.40
298;DHT22;133;49.626;9.680;2023-04-28T09:32:13;14.30;91.50
298;DHT22;133;49.626;9.680;2023-04-28T09:34:50;14.30;91.60
298;DHT22;133;49.626;9.680;2023-04-28T09:37:16;14.20;91.90
298;DHT22;133;49.626;9.680;2023-04-28T09:39:47;14.30;91.90
298;DHT22;133;49.626;9.680;2023-04-28T09:42:43;14.20;92.10
298;DHT22;133;49.626;9.680;2023-04-28T09:45:10;14.10;92.30
298;DHT22;133;49.626;9.680;2023-04-28T09:47:41;14.10;92.30
298;DHT22;133;49.626;9.680;2023-04-28T09:50:09;14.10;92.20
298;DHT22;133;49.626;9.680;2023-04-28T09:52:37;13.90;93.30
298;DHT22;133;49.626;9.680;2023-04-28T09:55:05;13.80;93.50
298;DHT22;133;49.626;9.680;2023-04-28T09:57:32;13.90;93.60
298;DHT22;133;49.626;9.680;2023-04-28T09:59:59;13.80;93.50
298;DHT22;133;49.626;9.680;2023-04-28T10:02:25;13.70;94.10
298;DHT22;133;49.626;9.680;2023-04-28T10:04:51;13.80;94.10
298;DHT22;133;49.626;9.680;2023-04-28T10:07:18;13.80;94.10
298;DHT22;133;49.626;9.680;2023-04-28T10:09:49;13.90;94.20
298;DHT22;133;49.626;9.680;2023-04-28T10:12:19;14.00;94.30
298;DHT22;133;49.626;9.680;2023-04-28T10:14:46;14.20;94.00
298;DHT22;133;49.626;9.680;2023-04-28T10:17:15;14.30;93.70
298;DHT22;133;49.626;9.680;2023-04-28T10:19:43;14.40;93.80
298;DHT22;133;49.626;9.680;2023-04-28T10:27:38;15.00;93.00
298;DHT22;133;49.626;9.680;2023-04-28T10:30:21;14.90;92.00
298;DHT22;133;49.626;9.680;2023-04-28T10:35:43;15.30;91.30
298;DHT22;133;49.626;9.680;2023-04-28T10:43:11;15.30;90.30
298;DHT22;133;49.626;9.680;2023-04-28T10:56:22;16.00;90.70
298;DHT22;133;49.626;9.680;2023-04-28T10:58:50;16.40;90.90
298;DHT22;133;49.626;9.680;2023-04-28T11:06:26;16.20;89.30
298;DHT22;133;49.626;9.680;2023-04-28T11:12:04;16.10;90.10
298;DHT22;133;49.626;9.680;2023-04-28T11:17:05;16.20;89.90
298;DHT22;133;49.626;9.680;2023-04-28T11:19:35;15.90;90.70
298;DHT22;133;49.626;9.680;2023-04-28T11:22:15;15.80;90.80
298;DHT22;133;49.626;9.680;2023-04-28T11:24:54;15.90;91.00
298;DHT22;133;49.626;9.680;2023-04-28T11:27:39;15.90;91.00
298;DHT22;133;49.626;9.680;2023-04-28T11:30:21;16.00;90.70
298;DHT22;133;49.626;9.680;2023-04-28T11:32:48;16.00;90.90
298;DHT22;133;49.626;9.680;2023-04-28T11:35:14;16.00;91.10
298;DHT22;133;49.626;9.680;2023-04-28T11:37:40;16.00;91.10
298;DHT22;133;49.626;9.680;2023-04-28T11:40:10;16.10;90.40
298;DHT22;133;49.626;9.680;2023-04-28T11:42:36;15.90;90.80
298;DHT22;133;49.626;9.680;2023-04-28T11:45:11;15.80;91.30
298;DHT22;133;49.626;9.680;2023-04-28T11:47:37;15.80;91.50
298;DHT22;133;49.626;9.680;2023-04-28T11:50:03;15.80;91.70
298;DHT22;133;49.626;9.680;2023-04-28T11:52:29;15.80;91.30
298;DHT22;133;49.626;9.680;2023-04-28T11:54:58;15.90;91.30
298;DHT22;133;49.626;9.680;2023-04-28T11:57:26;15.80;91.10
298;DHT22;133;49.626;9.680;2023-04-28T11:59:52;15.80;91.30
298;DHT22;133;49.626;9.680;2023-04-28T12:02:27;15.80;91.70
298;DHT22;133;49.626;9.680;2023-04-28T12:04:53;15.70;92.10
298;DHT22;133;49.626;9.680;2023-04-28T12:07:19;15.70;92.10
298;DHT22;133;49.626;9.680;2023-04-28T12:09:48;15.70;92.40
298;DHT22;133;49.626;9.680;2023-04-28T12:12:20;15.70;92.30
298;DHT22;133;49.626;9.680;2023-04-28T12:15:00;15.60;92.00
298;DHT22;133;49.626;9.680;2023-04-28T12:17:40;15.60;92.30
298;DHT22;133;49.626;9.680;2023-04-28T12:20:10;15.60;92.50
298;DHT22;133;49.626;9.680;2023-04-28T12:22:48;15.50;92.50
298;DHT22;133;49.626;9.680;2023-04-28T12:25:16;15.50;92.40
298;DHT22;133;49.626;9.680;2023-04-28T12:27:58;15.60;92.70
298;DHT22;133;49.626;9.680;2023-04-28T12:30:26;15.60;92.40
298;DHT22;133;49.626;9.680;2023-04-28T12:32:52;15.70;92.10
298;DHT22;133;49.626;9.680;2023-04-28T12:35:21;15.70;92.40
298;DHT22;133;49.626;9.680;2023-04-28T12:37:46;15.70;92.10
298;DHT22;133;49.626;9.680;2023-04-28T12:40:12;15.70;92.30
298;DHT22;133;49.626;9.680;2023-04-28T12:42:39;15.70;92.70
298;DHT22;133;49.626;9.680;2023-04-28T12:45:05;15.70;92.40
298;DHT22;133;49.626;9.680;2023-04-28T12:47:31;15.80;92.30
298;DHT22;133;49.626;9.680;2023-04-28T12:49:57;15.90;92.30
298;DHT22;133;49.626;9.680;2023-04-28T12:52:23;16.10;91.60
298;DHT22;133;49.626;9.680;2023-04-28T12:54:49;16.10;91.50
298;DHT22;133;49.626;9.680;2023-04-28T12:57:15;16.20;91.20
298;DHT22;133;49.626;9.680;2023-04-28T12:59:42;16.00;91.20
298;DHT22;133;49.626;9.680;2023-04-28T13:02:08;16.10;91.80
298;DHT22;133;49.626;9.680;2023-04-28T13:04:33;16.10;92.00
298;DHT22;133;49.626;9.680;2023-04-28T13:06:59;16.10;92.00
298;DHT22;133;49.626;9.680;2023-04-28T13:09:25;16.10;91.90
298;DHT22;133;49.626;9.680;2023-04-28T13:11:51;16.10;92.50
298;DHT22;133;49.626;9.680;2023-04-28T13:14:20;16.10;92.30
298;DHT22;133;49.626;9.680;2023-04-28T13:16:46;16.20;92.30
298;DHT22;133;49.626;9.680;2023-04-28T13:19:12;16.20;92.80
298;DHT22;133;49.626;9.680;2023-04-28T13:21:41;16.20;92.60
298;DHT22;133;49.626;9.680;2023-04-28T13:24:08;16.20;92.70
298;DHT22;133;49.626;9.680;2023-04-28T13:26:34;16.30;92.50
298;DHT22;133;49.626;9.680;2023-04-28T13:29:00;16.30;92.30
298;DHT22;133;49.626;9.680;2023-04-28T13:31:28;16.40;92.20
298;DHT22;133;49.626;9.680;2023-04-28T13:33:57;16.40;92.00
298;DHT22;133;49.626;9.680;2023-04-28T13:36:22;16.50;92.00
298;DHT22;133;49.626;9.680;2023-04-28T13:38:49;16.60;91.30
298;DHT22;133;49.626;9.680;2023-04-28T13:41:15;16.60;90.70
298;DHT22;133;49.626;9.680;2023-04-28T13:43:41;16.60;90.90
298;DHT22;133;49.626;9.680;2023-04-28T13:46:07;16.60;90.90
298;DHT22;133;49.626;9.680;2023-04-28T13:48:37;16.60;91.40
298;DHT22;133;49.626;9.680;2023-04-28T13:51:03;16.50;91.90
298;DHT22;133;49.626;9.680;2023-04-28T13:53:30;16.60;91.50
298;DHT22;133;49.626;9.680;2023-04-28T13:55:56;16.60;91.80
298;DHT22;133;49.626;9.680;2023-04-28T13:58:26;16.50;91.90
298;DHT22;133;49.626;9.680;2023-04-28T14:00:52;16.50;91.90
298;DHT22;133;49.626;9.680;2023-04-28T14:03:19;16.60;91.90
298;DHT22;133;49.626;9.680;2023-04-28T14:05:52;16.60;92.00
298;DHT22;133;49.626;9.680;2023-04-28T14:08:19;16.40;92.70
298;DHT22;133;49.626;9.680;2023-04-28T14:10:44;16.40;93.50
298;DHT22;133;49.626;9.680;2023-04-28T14:13:11;16.20;94.20
298;DHT22;133;49.626;9.680;2023-04-28T14:15:37;16.10;94.30
298;DHT22;133;49.626;9.680;2023-04-28T14:18:03;16.10;94.70
298;DHT22;133;49.626;9.680;2023-04-28T14:20:29;16.10;95.10
298;DHT22;133;49.626;9.680;2023-04-28T14:22:55;16.10;95.90
298;DHT22;133;49.626;9.680;2023-04-28T14:25:21;16.10;96.70
298;DHT22;133;49.626;9.680;2023-04-28T14:27:51;16.20;96.70
298;DHT22;133;49.626;9.680;2023-04-28T14:30:17;16.30;96.90
298;DHT22;133;49.626;9.680;2023-04-28T14:32:43;16.40;96.50
298;DHT22;133;49.626;9.680;2023-04-28T14:35:11;16.50;96.40
298;DHT22;133;49.626;9.680;2023-04-28T14:37:37;16.50;96.10
298;DHT22;133;49.626;9.680;2023-04-28T14:40:03;16.60;95.60
298;DHT22;133;49.626;9.680;2023-04-28T14:42:31;16.60;95.70
298;DHT22;133;49.626;9.680;2023-04-28T14:44:58;16.70;95.50
298;DHT22;133;49.626;9.680;2023-04-28T14:47:24;16.60;95.50
298;DHT22;133;49.626;9.680;2023-04-28T14:49:52;16.60;95.90
298;DHT22;133;49.626;9.680;2023-04-28T14:52:19;16.50;94.90
298;DHT22;133;49.626;9.680;2023-04-28T14:54:46;16.40;95.20
298;DHT22;133;49.626;9.680;2023-04-28T14:57:12;16.30;95.50
298;DHT22;133;49.626;9.680;2023-04-28T14:59:37;16.30;95.40
298;DHT22;133;49.626;9.680;2023-04-28T15:02:03;16.40;95.40
298;DHT22;133;49.626;9.680;2023-04-28T15:04:29;16.40;95.50
298;DHT22;133;49.626;9.680;2023-04-28T15:06:55;16.40;95.60
298;DHT22;133;49.626;9.680;2023-04-28T15:09:21;16.40;96.10
298;DHT22;133;49.626;9.680;2023-04-28T15:11:47;16.30;96.00
298;DHT22;133;49.626;9.680;2023-04-28T15:14:13;16.30;96.30
298;DHT22;133;49.626;9.680;2023-04-28T15:16:39;16.30;96.40
298;DHT22;133;49.626;9.680;2023-04-28T15:19:04;16.40;96.40
298;DHT22;133;49.626;9.680;2023-04-28T15:21:31;16.40;96.40
298;DHT22;133;49.626;9.680;2023-04-28T15:23:56;16.40;96.30
298;DHT22;133;49.626;9.680;2023-04-28T15:26:24;16.40;96.40
298;DHT22;133;49.626;9.680;2023-04-28T15:28:50;16.40;96.50
298;DHT22;133;49.626;9.680;2023-04-28T15:31:17;16.40;96.60
298;DHT22;133;49.626;9.680;2023-04-28T15:33:43;16.40;97.20
298;DHT22;133;49.626;9.680;2023-04-28T15:36:08;16.30;97.50
298;DHT22;133;49.626;9.680;2023-04-28T15:38:34;16.20;97.50
298;DHT22;133;49.626;9.680;2023-04-28T15:41:00;16.20;97.40
298;DHT22;133;49.626;9.680;2023-04-28T15:43:26;16.10;97.70
298;DHT22;133;49.626;9.680;2023-04-28T15:45:52;16.10;98.20
298;DHT22;133;49.626;9.680;2023-04-28T15:48:18;16.10;98.30
298;DHT22;133;49.626;9.680;2023-04-28T15:50:44;16.20;98.30
298;DHT22;133;49.626;9.680;2023-04-28T15:53:09;16.20;98.00
298;DHT22;133;49.626;9.680;2023-04-28T15:55:35;16.20;97.90
298;DHT22;133;49.626;9.680;2023-04-28T15:58:01;16.20;97.80
298;DHT22;133;49.626;9.680;2023-04-28T16:00:27;16.30;96.90
298;DHT22;133;49.626;9.680;2023-04-28T16:02:53;16.40;97.00
298;DHT22;133;49.626;9.680;2023-04-28T16:05:19;16.50;96.90
298;DHT22;133;49.626;9.680;2023-04-28T16:07:44;16.70;97.30
298;DHT22;133;49.626;9.680;2023-04-28T16:10:15;16.90;97.30
298;DHT22;133;49.626;9.680;2023-04-28T16:12:41;17.20;96.40
298;DHT22;133;49.626;9.680;2023-04-28T16:15:09;17.20;94.40
298;DHT22;133;49.626;9.680;2023-04-28T16:17:36;16.90;94.60
298;DHT22;133;49.626;9.680;2023-04-28T16:20:06;16.80;95.30
298;DHT22;133;49.626;9.680;2023-04-28T16:22:33;16.70;95.20
298;DHT22;133;49.626;9.680;2023-04-28T16:24:59;16.50;95.70
298;DHT22;133;49.626;9.680;2023-04-28T16:27:25;16.50;96.10
298;DHT22;133;49.626;9.680;2023-04-28T16:29:51;16.50;96.50
298;DHT22;133;49.626;9.680;2023-04-28T16:32:17;16.50;96.50
298;DHT22;133;49.626;9.680;2023-04-28T16:34:43;16.50;97.00
298;DHT22;133;49.626;9.680;2023-04-28T16:37:09;16.50;97.20
298;DHT22;133;49.626;9.680;2023-04-28T16:39:36;16.50;96.50
298;DHT22;133;49.626;9.680;2023-04-28T16:42:01;16.50;96.50
298;DHT22;133;49.626;9.680;2023-04-28T16:44:28;16.60;96.60
298;DHT22;133;49.626;9.680;2023-04-28T16:46:55;16.60;96.60
298;DHT22;133;49.626;9.680;2023-04-28T16:49:21;16.60;96.30
298;DHT22;133;49.626;9.680;2023-04-28T16:51:58;16.60;95.90
298;DHT22;133;49.626;9.680;2023-04-28T16:54:25;16.50;95.90
298;DHT22;133;49.626;9.680;2023-04-28T16:57:00;16.50;95.70
298;DHT22;133;49.626;9.680;2023-04-28T16:59:27;16.40;95.50
298;DHT22;133;49.626;9.680;2023-04-28T17:01:56;16.40;95.00
298;DHT22;133;49.626;9.680;2023-04-28T17:04:22;16.50;95.10
298;DHT22;133;49.626;9.680;2023-04-28T17:06:49;16.40;95.10
298;DHT22;133;49.626;9.680;2023-04-28T17:09:16;16.50;95.50
298;DHT22;133;49.626;9.680;2023-04-28T17:11:41;16.50;95.00
298;DHT22;133;49.626;9.680;2023-04-28T17:14:07;16.50;95.30
298;DHT22;133;49.626;9.680;2023-04-28T17:16:33;16.50;95.00
298;DHT22;133;49.626;9.680;2023-04-28T17:18:59;16.30;95.00
298;DHT22;133;49.626;9.680;2023-04-28T17:21:25;16.20;95.70
298;DHT22;133;49.626;9.680;2023-04-28T17:23:53;16.20;95.90
298;DHT22;133;49.626;9.680;2023-04-28T17:26:19;16.20;96.00
298;DHT22;133;49.626;9.680;2023-04-28T17:28:47;16.20;95.90